TimeCDT,TemperatureF,Dew PointF,Humidity,Sea Level PressureIn,VisibilityMPH,Wind Direction,Wind SpeedMPH,Gust SpeedMPH,PrecipitationIn,Events,Conditions,WindDirDegrees,DateUTC
12:13 AM,46.4,39.2,76,29.97,10.0,North,19.6,25.3,N/A,,Overcast,350,2012-11-01 05:13:00
12:34 AM,44.6,37.4,76,29.98,10.0,North,17.3,24.2,N/A,,Overcast,350,2012-11-01 05:34:00
12:53 AM,44.6,37.4,76,29.99,10.0,NNW,16.1,26.5,N/A,,Overcast,340,2012-11-01 05:53:00
1:13 AM,44.6,37.4,76,30.00,7.0,NNW,18.4,28.8,N/A,,Overcast,340,2012-11-01 06:13:00
1:33 AM,42.8,39.2,87,30.00,7.0,NNW,20.7,25.3,N/A,,Overcast,340,2012-11-01 06:33:00
1:54 AM,42.8,39.2,87,30.00,7.0,North,18.4,25.3,N/A,,Overcast,350,2012-11-01 06:54:00
2:13 AM,42.8,37.4,81,30.00,7.0,North,18.4,23.0,N/A,,Overcast,350,2012-11-01 07:13:00
2:33 AM,41.0,37.4,87,30.02,7.0,NNW,16.1,20.7,N/A,,Mostly Cloudy,330,2012-11-01 07:33:00
2:53 AM,42.8,37.4,81,30.02,10.0,NNW,13.8,21.9,N/A,,Mostly Cloudy,340,2012-11-01 07:53:00
3:13 AM,42.8,37.4,81,30.03,10.0,NNW,16.1,-,N/A,,Overcast,340,2012-11-01 08:13:00
3:34 AM,42.8,37.4,81,30.02,10.0,NNW,15.0,19.6,N/A,,Overcast,340,2012-11-01 08:34:00
3:53 AM,42.8,37.4,81,30.02,10.0,NNW,15.0,-,N/A,,Overcast,340,2012-11-01 08:53:00
4:13 AM,42.8,35.6,76,30.02,10.0,NNW,17.3,21.9,N/A,,Overcast,340,2012-11-01 09:13:00
4:33 AM,41.0,35.6,81,30.03,10.0,NNW,19.6,-,N/A,,Overcast,340,2012-11-01 09:33:00
4:53 AM,39.2,35.6,87,30.03,10.0,North,17.3,24.2,N/A,,Overcast,350,2012-11-01 09:53:00
5:13 AM,39.2,35.6,87,30.04,10.0,NNW,15.0,23.0,N/A,,Overcast,330,2012-11-01 10:13:00
5:33 AM,39.2,33.8,81,30.04,10.0,NNW,15.0,18.4,N/A,,Overcast,340,2012-11-01 10:33:00
5:54 AM,37.4,33.8,87,30.05,10.0,NNW,16.1,-,N/A,,Overcast,340,2012-11-01 10:54:00
6:13 AM,37.4,33.8,87,30.06,10.0,NNW,13.8,23.0,N/A,,Overcast,340,2012-11-01 11:13:00
6:34 AM,35.6,32.0,87,30.05,10.0,North,11.5,-,N/A,,Mostly Cloudy,350,2012-11-01 11:34:00
6:53 AM,35.6,32.0,87,30.06,10.0,NNW,13.8,-,N/A,,Mostly Cloudy,340,2012-11-01 11:53:00
7:13 AM,35.6,32.0,87,30.06,10.0,NNW,12.7,16.1,N/A,,Overcast,330,2012-11-01 12:13:00
7:33 AM,35.6,30.2,81,30.07,10.0,NNW,15.0,18.4,N/A,,Mostly Cloudy,340,2012-11-01 12:33:00
7:53 AM,33.8,30.2,87,30.07,10.0,NNW,15.0,-,N/A,,Mostly Cloudy,340,2012-11-01 12:53:00
8:13 AM,33.8,30.2,87,30.07,10.0,NNW,10.4,-,N/A,,Scattered Clouds,340,2012-11-01 13:13:00
8:33 AM,32.0,30.2,93,30.08,10.0,NNW,11.5,-,N/A,,Clear,330,2012-11-01 13:33:00
8:53 AM,33.8,30.2,87,30.08,10.0,North,10.4,-,N/A,,Scattered Clouds,350,2012-11-01 13:53:00
9:13 AM,33.8,30.2,87,30.08,10.0,NNW,12.7,18.4,N/A,,Mostly Cloudy,340,2012-11-01 14:13:00
9:33 AM,33.8,28.4,81,30.09,10.0,NNW,17.3,-,N/A,,Overcast,330,2012-11-01 14:33:00
9:53 AM,33.8,28.4,81,30.08,10.0,NNW,15.0,-,N/A,,Overcast,340,2012-11-01 14:53:00
10:13 AM,33.8,28.4,81,30.09,10.0,North,12.7,18.4,N/A,,Scattered Clouds,350,2012-11-01 15:13:00
10:33 AM,35.6,26.6,70,30.09,10.0,North,16.1,24.2,N/A,,Scattered Clouds,350,2012-11-01 15:33:00
10:53 AM,35.6,26.6,70,30.09,10.0,North,16.1,-,N/A,,Mostly Cloudy,350,2012-11-01 15:53:00
11:14 AM,37.4,26.6,65,30.08,10.0,NNW,16.1,21.9,N/A,,Mostly Cloudy,340,2012-11-01 16:14:00
11:34 AM,37.4,26.6,65,30.08,10.0,NNW,12.7,-,N/A,,Mostly Cloudy,340,2012-11-01 16:34:00
11:53 AM,37.4,26.6,65,30.09,10.0,NNW,18.4,23.0,N/A,,Mostly Cloudy,340,2012-11-01 16:53:00
12:14 PM,37.4,26.6,65,30.09,10.0,NNW,16.1,-,N/A,,Mostly Cloudy,340,2012-11-01 17:14:00
12:33 PM,39.2,26.6,61,30.09,10.0,NNW,18.4,23.0,N/A,,Scattered Clouds,330,2012-11-01 17:33:00
12:53 PM,39.2,26.6,61,30.08,10.0,North,15.0,21.9,N/A,,Clear,350,2012-11-01 17:53:00
1:13 PM,39.2,24.8,56,30.07,10.0,NNW,18.4,21.9,N/A,,Clear,330,2012-11-01 18:13:00
1:33 PM,41.0,24.8,53,30.06,10.0,North,18.4,-,N/A,,Clear,350,2012-11-01 18:33:00
1:54 PM,39.2,24.8,56,30.05,10.0,North,16.1,23.0,N/A,,Clear,350,2012-11-01 18:54:00
2:13 PM,39.2,24.8,56,30.05,10.0,North,18.4,24.2,N/A,,Clear,350,2012-11-01 19:13:00
2:33 PM,39.2,24.8,56,30.05,10.0,NNW,15.0,20.7,N/A,,Clear,330,2012-11-01 19:33:00
2:53 PM,41.0,24.8,53,30.05,10.0,NNW,12.7,19.6,N/A,,Clear,330,2012-11-01 19:53:00
3:13 PM,41.0,24.8,53,30.04,10.0,NNW,13.8,18.4,N/A,,Clear,340,2012-11-01 20:13:00
3:33 PM,42.8,23.0,46,30.04,10.0,North,12.7,-,N/A,,Clear,350,2012-11-01 20:33:00
3:53 PM,42.8,23.0,46,30.04,10.0,North,18.4,-,N/A,,Clear,360,2012-11-01 20:53:00
4:14 PM,42.8,21.2,42,30.05,10.0,NNW,13.8,18.4,N/A,,Clear,340,2012-11-01 21:14:00
4:33 PM,42.8,21.2,42,30.04,10.0,NNW,15.0,-,N/A,,Clear,340,2012-11-01 21:33:00
4:54 PM,41.0,23.0,49,30.03,10.0,North,13.8,-,N/A,,Clear,350,2012-11-01 21:54:00
5:13 PM,39.2,23.0,52,30.03,10.0,North,12.7,-,N/A,,Clear,350,2012-11-01 22:13:00
5:34 PM,37.4,24.8,60,30.04,10.0,NNW,10.4,-,N/A,,Clear,340,2012-11-01 22:34:00
5:53 PM,37.4,24.8,60,30.03,10.0,North,10.4,-,N/A,,Clear,350,2012-11-01 22:53:00
6:13 PM,35.6,24.8,65,30.03,10.0,North,10.4,-,N/A,,Clear,350,2012-11-01 23:13:00
6:33 PM,33.8,24.8,70,30.03,10.0,North,8.1,-,N/A,,Clear,350,2012-11-01 23:33:00
6:53 PM,33.8,23.0,65,30.04,10.0,North,9.2,-,N/A,,Clear,360,2012-11-01 23:53:00
7:13 PM,32.0,23.0,69,30.05,10.0,North,8.1,-,N/A,,Clear,350,2012-11-02 00:13:00
7:33 PM,32.0,23.0,69,30.05,10.0,North,9.2,-,N/A,,Clear,350,2012-11-02 00:33:00
7:54 PM,30.2,23.0,75,30.06,10.0,North,8.1,-,N/A,,Clear,350,2012-11-02 00:54:00
8:13 PM,30.2,23.0,75,30.06,10.0,North,6.9,-,N/A,,Clear,350,2012-11-02 01:13:00
8:33 PM,28.4,23.0,80,30.06,10.0,North,4.6,-,N/A,,Clear,350,2012-11-02 01:33:00
8:53 PM,28.4,23.0,80,30.06,10.0,North,5.8,-,N/A,,Clear,360,2012-11-02 01:53:00
9:14 PM,28.4,21.2,74,30.07,10.0,North,5.8,-,N/A,,Clear,360,2012-11-02 02:14:00
9:34 PM,28.4,23.0,80,30.06,10.0,North,6.9,-,N/A,,Clear,360,2012-11-02 02:34:00
9:53 PM,28.4,23.0,80,30.06,10.0,North,5.8,-,N/A,,Clear,360,2012-11-02 02:53:00
10:14 PM,28.4,23.0,80,30.06,10.0,North,4.6,-,N/A,,Clear,10,2012-11-02 03:14:00
10:34 PM,28.4,23.0,80,30.07,10.0,North,4.6,-,N/A,,Clear,360,2012-11-02 03:34:00
10:53 PM,28.4,23.0,80,30.08,10.0,North,5.8,-,N/A,,Clear,360,2012-11-02 03:53:00
11:13 PM,28.4,24.8,86,30.08,10.0,North,3.5,-,N/A,,Clear,360,2012-11-02 04:13:00
11:33 PM,28.4,23.0,80,30.07,10.0,NNE,4.6,-,N/A,,Clear,20,2012-11-02 04:33:00
11:53 PM,28.4,24.8,86,30.09,10.0,North,3.5,-,N/A,,Clear,360,2012-11-02 04:53:00